sensor_id;sensor_type;location;lat;lon;timestamp;pressure;altitude;pressure_sealevel;temperature;humidity
9905;BME280;4991;43.566;27.820;2023-02-02T00:00:01;98645.06;;;1.78;100.00
9905;BME280;4991;43.566;27.820;2023-02-02T00:02:27;98640.78;;;1.77;100.00
9905;BME280;4991;43.566;27.820;2023-02-02T00:04:52;98650.50;;;1.83;100.00
9905;BME280;4991;43.566;27.820;2023-02-02T00:07:18;98649.16;;;1.80;100.00
9905;BME280;4991;43.566;27.820;2023-02-02T00:09:44;98647.69;;;1.73;100.00
9905;BME280;4991;43.566;27.820;2023-02-02T00:12:09;98643.63;;;1.92;100.00
9905;BME280;4991;43.566;27.820;2023-02-02T00:14:35;98640.50;;;2.00;100.00
9905;BME280;4991;43.566;27.820;2023-02-02T00:17:00;98638.94;;;2.04;100.00
9905;BME280;4991;43.566;27.820;2023-02-02T00:19:28;98636.78;;;2.06;100.00
9905;BME280;4991;43.566;27.820;2023-02-02T00:21:56;98634.66;;;2.08;100.00
9905;BME280;4991;43.566;27.820;2023-02-02T00:24:22;98634.97;;;2.11;100.00
9905;BME280;4991;43.566;27.820;2023-02-02T00:26:53;98638.75;;;2.10;100.00
9905;BME280;4991;43.566;27.820;2023-02-02T00:29:23;98634.25;;;2.21;100.00
9905;BME280;4991;43.566;27.820;2023-02-02T00:31:49;98631.28;;;2.17;100.00
9905;BME280;4991;43.566;27.820;2023-02-02T00:34:15;98635.34;;;2.20;100.00
9905;BME280;4991;43.566;27.820;2023-02-02T00:36:42;98639.91;;;2.19;100.00
9905;BME280;4991;43.566;27.820;2023-02-02T00:39:12;98634.56;;;2.24;100.00
9905;BME280;4991;43.566;27.820;2023-02-02T00:41:38;98635.97;;;2.27;100.00
9905;BME280;4991;43.566;27.820;2023-02-02T00:44:04;98628.00;;;2.37;100.00
9905;BME280;4991;43.566;27.820;2023-02-02T00:46:48;98620.19;;;2.35;100.00
9905;BME280;4991;43.566;27.820;2023-02-02T00:49:14;98621.22;;;2.34;100.00
9905;BME280;4991;43.566;27.820;2023-02-02T00:51:39;98620.19;;;2.40;100.00
9905;BME280;4991;43.566;27.820;2023-02-02T00:54:05;98622.31;;;2.33;100.00
9905;BME280;4991;43.566;27.820;2023-02-02T00:56:30;98625.84;;;2.39;100.00
9905;BME280;4991;43.566;27.820;2023-02-02T00:58:56;98622.66;;;2.42;100.00
9905;BME280;4991;43.566;27.820;2023-02-02T01:01:22;98626.97;;;2.43;100.00
9905;BME280;4991;43.566;27.820;2023-02-02T01:03:49;98625.13;;;2.48;100.00
9905;BME280;4991;43.566;27.820;2023-02-02T01:06:15;98619.94;;;2.37;100.00
9905;BME280;4991;43.566;27.820;2023-02-02T01:08:41;98617.25;;;2.37;100.00
9905;BME280;4991;43.566;27.820;2023-02-02T01:11:07;98622.56;;;2.32;100.00
9905;BME280;4991;43.566;27.820;2023-02-02T01:13:33;98616.69;;;2.35;100.00
9905;BME280;4991;43.566;27.820;2023-02-02T01:16:00;98607.03;;;2.39;100.00
9905;BME280;4991;43.566;27.820;2023-02-02T01:18:26;98603.84;;;2.42;100.00
9905;BME280;4991;43.566;27.820;2023-02-02T01:21:11;98600.03;;;2.38;100.00
9905;BME280;4991;43.566;27.820;2023-02-02T01:23:38;98599.78;;;2.39;100.00
9905;BME280;4991;43.566;27.820;2023-02-02T01:26:06;98603.75;;;2.32;100.00
9905;BME280;4991;43.566;27.820;2023-02-02T01:28:32;98606.88;;;2.24;100.00
9905;BME280;4991;43.566;27.820;2023-02-02T01:31:05;98602.44;;;2.34;100.00
9905;BME280;4991;43.566;27.820;2023-02-02T01:33:30;98598.66;;;2.30;100.00
9905;BME280;4991;43.566;27.820;2023-02-02T01:35:56;98601.06;;;2.32;100.00
9905;BME280;4991;43.566;27.820;2023-02-02T01:38:22;98604.03;;;2.30;100.00
9905;BME280;4991;43.566;27.820;2023-02-02T01:40:51;98605.97;;;2.40;100.00
9905;BME280;4991;43.566;27.820;2023-02-02T01:43:29;98594.31;;;2.29;100.00
9905;BME280;4991;43.566;27.820;2023-02-02T01:45:56;98598.47;;;2.42;100.00
9905;BME280;4991;43.566;27.820;2023-02-02T01:48:33;98594.44;;;2.44;100.00
9905;BME280;4991;43.566;27.820;2023-02-02T01:51:13;98589.34;;;2.43;100.00
9905;BME280;4991;43.566;27.820;2023-02-02T01:53:41;98588.44;;;2.32;100.00
9905;BME280;4991;43.566;27.820;2023-02-02T01:56:11;98581.16;;;2.28;100.00
9905;BME280;4991;43.566;27.820;2023-02-02T01:58:39;98583.41;;;2.41;100.00
9905;BME280;4991;43.566;27.820;2023-02-02T02:01:06;98579.31;;;2.33;100.00
9905;BME280;4991;43.566;27.820;2023-02-02T02:03:34;98581.50;;;2.36;100.00
9905;BME280;4991;43.566;27.820;2023-02-02T02:06:04;98571.00;;;2.35;100.00
9905;BME280;4991;43.566;27.820;2023-02-02T02:11:12;98578.75;;;2.31;100.00
9905;BME280;4991;43.566;27.820;2023-02-02T02:13:38;98576.28;;;2.25;100.00
9905;BME280;4991;43.566;27.820;2023-02-02T02:22:12;98590.09;;;2.07;100.00
9905;BME280;4991;43.566;27.820;2023-02-02T02:33:57;98598.09;;;1.75;100.00
9905;BME280;4991;43.566;27.820;2023-02-02T02:39:30;98589.72;;;1.72;100.00
9905;BME280;4991;43.566;27.820;2023-02-02T02:42:02;98589.84;;;1.82;100.00
9905;BME280;4991;43.566;27.820;2023-02-02T02:44:30;98585.56;;;1.86;100.00
9905;BME280;4991;43.566;27.820;2023-02-02T02:46:56;98581.63;;;1.93;100.00
9905;BME280;4991;43.566;27.820;2023-02-02T02:49:22;98575.94;;;1.90;100.00
9905;BME280;4991;43.566;27.820;2023-02-02T02:51:52;98582.09;;;1.85;100.00
9905;BME280;4991;43.566;27.820;2023-02-02T02:54:22;98582.28;;;1.79;100.00
9905;BME280;4991;43.566;27.820;2023-02-02T02:57:15;98580.69;;;1.83;100.00
9905;BME280;4991;43.566;27.820;2023-02-02T03:03:02;98573.88;;;1.70;100.00
9905;BME280;4991;43.566;27.820;2023-02-02T03:10:54;98568.66;;;1.59;100.00
9905;BME280;4991;43.566;27.820;2023-02-02T03:13:21;98575.38;;;1.61;100.00
9905;BME280;4991;43.566;27.820;2023-02-02T03:15:46;98573.75;;;1.60;100.00
9905;BME280;4991;43.566;27.820;2023-02-02T03:18:14;98569.53;;;1.64;100.00
9905;BME280;4991;43.566;27.820;2023-02-02T03:20:42;98568.44;;;1.65;100.00
9905;BME280;4991;43.566;27.820;2023-02-02T03:23:09;98565.50;;;1.67;100.00
9905;BME280;4991;43.566;27.820;2023-02-02T03:25:35;98563.38;;;1.69;100.00
9905;BME280;4991;43.566;27.820;2023-02-02T03:28:00;98555.91;;;1.71;100.00
9905;BME280;4991;43.566;27.820;2023-02-02T03:30:26;98561.50;;;1.69;100.00
9905;BME280;4991;43.566;27.820;2023-02-02T03:32:52;98560.72;;;1.69;100.00
9905;BME280;4991;43.566;27.820;2023-02-02T03:35:18;98555.53;;;1.62;100.00
9905;BME280;4991;43.566;27.820;2023-02-02T03:37:45;98553.84;;;1.56;100.00
9905;BME280;4991;43.566;27.820;2023-02-02T03:40:11;98566.28;;;1.62;100.00
9905;BME280;4991;43.566;27.820;2023-02-02T03:42:37;98564.31;;;1.58;100.00
9905;BME280;4991;43.566;27.820;2023-02-02T03:45:04;98557.03;;;1.53;100.00
9905;BME280;4991;43.566;27.820;2023-02-02T03:47:30;98573.38;;;1.52;100.00
9905;BME280;4991;43.566;27.820;2023-02-02T03:49:57;98559.97;;;1.52;100.00
9905;BME280;4991;43.566;27.820;2023-02-02T03:52:23;98570.59;;;1.42;100.00
9905;BME280;4991;43.566;27.820;2023-02-02T03:54:49;98565.78;;;1.44;100.00
9905;BME280;4991;43.566;27.820;2023-02-02T03:57:14;98572.75;;;1.45;100.00
9905;BME280;4991;43.566;27.820;2023-02-02T03:59:40;98565.22;;;1.42;100.00
9905;BME280;4991;43.566;27.820;2023-02-02T04:02:06;98562.53;;;1.42;100.00
9905;BME280;4991;43.566;27.820;2023-02-02T04:04:32;98572.94;;;1.38;100.00
9905;BME280;4991;43.566;27.820;2023-02-02T04:06:57;98570.28;;;1.38;100.00
9905;BME280;4991;43.566;27.820;2023-02-02T04:09:24;98573.72;;;1.33;100.00
9905;BME280;4991;43.566;27.820;2023-02-02T04:11:50;98579.31;;;1.32;100.00
9905;BME280;4991;43.566;27.820;2023-02-02T04:14:15;98577.88;;;1.24;100.00
9905;BME280;4991;43.566;27.820;2023-02-02T04:16:41;98574.66;;;1.22;100.00
9905;BME280;4991;43.566;27.820;2023-02-02T04:19:06;98573.34;;;1.25;100.00
9905;BME280;4991;43.566;27.820;2023-02-02T04:21:32;98580.28;;;1.21;100.00
9905;BME280;4991;43.566;27.820;2023-02-02T04:23:58;98583.75;;;1.21;100.00
9905;BME280;4991;43.566;27.820;2023-02-02T04:26:24;98584.75;;;1.15;100.00
9905;BME280;4991;43.566;27.820;2023-02-02T04:28:51;98579.88;;;1.12;100.00
9905;BME280;4991;43.566;27.820;2023-02-02T04:31:17;98581.25;;;1.15;100.00
9905;BME280;4991;43.566;27.820;2023-02-02T04:33:43;98591.16;;;1.14;100.00
9905;BME280;4991;43.566;27.820;2023-02-02T04:36:09;98590.69;;;1.17;100.00
9905;BME280;4991;43.566;27.820;2023-02-02T04:38:35;98585.84;;;1.19;100.00
9905;BME280;4991;43.566;27.820;2023-02-02T04:41:06;98593.91;;;1.19;100.00
9905;BME280;4991;43.566;27.820;2023-02-02T04:43:35;98587.75;;;1.19;100.00
9905;BME280;4991;43.566;27.820;2023-02-02T04:46:01;98599.84;;;1.21;100.00
9905;BME280;4991;43.566;27.820;2023-02-02T04:48:26;98601.88;;;1.14;100.00
9905;BME280;4991;43.566;27.820;2023-02-02T04:51:03;98596.78;;;1.13;100.00
9905;BME280;4991;43.566;27.820;2023-02-02T04:53:29;98606.63;;;1.07;100.00
9905;BME280;4991;43.566;27.820;2023-02-02T04:55:55;98599.03;;;0.99;100.00
9905;BME280;4991;43.566;27.820;2023-02-02T04:58:21;98605.16;;;1.00;100.00
9905;BME280;4991;43.566;27.820;2023-02-02T05:00:47;98601.38;;;0.96;100.00
9905;BME280;4991;43.566;27.820;2023-02-02T05:03:13;98607.06;;;0.99;100.00
9905;BME280;4991;43.566;27.820;2023-02-02T05:05:38;98597.69;;;1.02;100.00
9905;BME280;4991;43.566;27.820;2023-02-02T05:08:06;98607.28;;;0.98;100.00
9905;BME280;4991;43.566;27.820;2023-02-02T05:10:39;98607.78;;;0.95;100.00
9905;BME280;4991;43.566;27.820;2023-02-02T05:13:06;98596.66;;;0.86;100.00
9905;BME280;4991;43.566;27.820;2023-02-02T05:15:32;98611.47;;;0.89;100.00
9905;BME280;4991;43.566;27.820;2023-02-02T05:17:59;98609.34;;;0.91;100.00
9905;BME280;4991;43.566;27.820;2023-02-02T05:20:24;98614.38;;;0.87;100.00
9905;BME280;4991;43.566;27.820;2023-02-02T05:22:50;98615.22;;;0.88;100.00
9905;BME280;4991;43.566;27.820;2023-02-02T05:25:16;98615.75;;;0.90;100.00
9905;BME280;4991;43.566;27.820;2023-02-02T05:27:43;98616.56;;;0.90;100.00
9905;BME280;4991;43.566;27.820;2023-02-02T05:30:11;98629.66;;;0.87;100.00
9905;BME280;4991;43.566;27.820;2023-02-02T05:32:37;98628.03;;;0.86;100.00
9905;BME280;4991;43.566;27.820;2023-02-02T05:35:03;98628.81;;;0.86;100.00
9905;BME280;4991;43.566;27.820;2023-02-02T05:37:29;98636.41;;;0.89;100.00
9905;BME280;4991;43.566;27.820;2023-02-02T05:39:55;98637.19;;;0.90;100.00
9905;BME280;4991;43.566;27.820;2023-02-02T05:42:20;98645.81;;;0.92;100.00
9905;BME280;4991;43.566;27.820;2023-02-02T05:44:46;98633.31;;;0.97;100.00
9905;BME280;4991;43.566;27.820;2023-02-02T05:47:11;98633.88;;;0.99;100.00
9905;BME280;4991;43.566;27.820;2023-02-02T05:49:37;98633.31;;;0.97;100.00
9905;BME280;4991;43.566;27.820;2023-02-02T05:52:03;98633.94;;;1.04;100.00
9905;BME280;4991;43.566;27.820;2023-02-02T05:54:29;98630.25;;;1.10;100.00
9905;BME280;4991;43.566;27.820;2023-02-02T05:56:54;98637.25;;;1.11;100.00
9905;BME280;4991;43.566;27.820;2023-02-02T05:59:21;98634.53;;;1.28;100.00
9905;BME280;4991;43.566;27.820;2023-02-02T06:01:47;98646.06;;;1.28;100.00
9905;BME280;4991;43.566;27.820;2023-02-02T06:04:13;98631.06;;;1.27;100.00
9905;BME280;4991;43.566;27.820;2023-02-02T06:06:39;98635.41;;;1.33;100.00
9905;BME280;4991;43.566;27.820;2023-02-02T06:09:06;98630.28;;;1.32;100.00
9905;BME280;4991;43.566;27.820;2023-02-02T06:11:32;98636.47;;;1.33;100.00
9905;BME280;4991;43.566;27.820;2023-02-02T06:13:58;98651.00;;;1.37;100.00
9905;BME280;4991;43.566;27.820;2023-02-02T06:16:24;98635.97;;;1.36;100.00
9905;BME280;4991;43.566;27.820;2023-02-02T06:18:50;98642.44;;;1.40;100.00
9905;BME280;4991;43.566;27.820;2023-02-02T06:21:16;98633.38;;;1.41;100.00
9905;BME280;4991;43.566;27.820;2023-02-02T06:23:43;98633.94;;;1.43;100.00
9905;BME280;4991;43.566;27.820;2023-02-02T06:26:13;98638.28;;;1.49;100.00
9905;BME280;4991;43.566;27.820;2023-02-02T06:28:40;98645.53;;;1.48;100.00
9905;BME280;4991;43.566;27.820;2023-02-02T06:31:07;98643.66;;;1.49;100.00
9905;BME280;4991;43.566;27.820;2023-02-02T06:33:33;98633.56;;;1.56;100.00
9905;BME280;4991;43.566;27.820;2023-02-02T06:36:00;98645.16;;;1.61;100.00
9905;BME280;4991;43.566;27.820;2023-02-02T06:38:27;98642.78;;;1.65;100.00
9905;BME280;4991;43.566;27.820;2023-02-02T06:40:53;98643.34;;;1.67;100.00
9905;BME280;4991;43.566;27.820;2023-02-02T06:43:19;98652.94;;;1.63;100.00
9905;BME280;4991;43.566;27.820;2023-02-02T06:45:44;98662.94;;;1.67;100.00
9905;BME280;4991;43.566;27.820;2023-02-02T06:48:10;98654.41;;;1.70;100.00
9905;BME280;4991;43.566;27.820;2023-02-02T06:50:37;98656.06;;;1.76;100.00
9905;BME280;4991;43.566;27.820;2023-02-02T06:53:03;98642.38;;;1.78;100.00
9905;BME280;4991;43.566;27.820;2023-02-02T06:55:29;98664.19;;;1.81;100.00
9905;BME280;4991;43.566;27.820;2023-02-02T06:57:59;98653.13;;;1.78;100.00
9905;BME280;4991;43.566;27.820;2023-02-02T07:00:26;98666.06;;;1.81;100.00
9905;BME280;4991;43.566;27.820;2023-02-02T07:02:53;98649.22;;;1.85;100.00
9905;BME280;4991;43.566;27.820;2023-02-02T07:05:18;98662.88;;;1.84;100.00
9905;BME280;4991;43.566;27.820;2023-02-02T07:07:46;98648.19;;;1.91;100.00
9905;BME280;4991;43.566;27.820;2023-02-02T07:10:11;98662.69;;;1.90;100.00
9905;BME280;4991;43.566;27.820;2023-02-02T07:12:37;98645.31;;;1.98;100.00
9905;BME280;4991;43.566;27.820;2023-02-02T07:15:03;98651.81;;;2.02;100.00
9905;BME280;4991;43.566;27.820;2023-02-02T07:17:30;98642.97;;;2.06;100.00
9905;BME280;4991;43.566;27.820;2023-02-02T07:19:55;98655.16;;;2.14;100.00
9905;BME280;4991;43.566;27.820;2023-02-02T07:22:21;98663.50;;;2.17;100.00
9905;BME280;4991;43.566;27.820;2023-02-02T07:24:46;98662.47;;;2.18;100.00
9905;BME280;4991;43.566;27.820;2023-02-02T07:27:12;98678.38;;;2.25;100.00
9905;BME280;4991;43.566;27.820;2023-02-02T07:29:38;98669.84;;;2.33;100.00
9905;BME280;4991;43.566;27.820;2023-02-02T07:32:04;98664.03;;;2.41;100.00
9905;BME280;4991;43.566;27.820;2023-02-02T07:34:29;98671.88;;;2.47;100.00
9905;BME280;4991;43.566;27.820;2023-02-02T07:36:56;98673.25;;;2.50;100.00
9905;BME280;4991;43.566;27.820;2023-02-02T07:39:22;98677.56;;;2.51;100.00
9905;BME280;4991;43.566;27.820;2023-02-02T07:41:48;98671.97;;;2.57;100.00
9905;BME280;4991;43.566;27.820;2023-02-02T07:44:14;98665.03;;;2.61;100.00
9905;BME280;4991;43.566;27.820;2023-02-02T07:46:41;98674.47;;;2.69;100.00
9905;BME280;4991;43.566;27.820;2023-02-02T07:49:11;98677.16;;;2.69;100.00
9905;BME280;4991;43.566;27.820;2023-02-02T07:51:37;98671.09;;;2.84;100.00
9905;BME280;4991;43.566;27.820;2023-02-02T07:54:02;98689.13;;;2.83;100.00
9905;BME280;4991;43.566;27.820;2023-02-02T07:56:28;98679.25;;;2.94;100.00
9905;BME280;4991;43.566;27.820;2023-02-02T07:58:55;98675.59;;;3.05;100.00
9905;BME280;4991;43.566;27.820;2023-02-02T08:01:22;98683.22;;;3.18;100.00
9905;BME280;4991;43.566;27.820;2023-02-02T08:03:49;98681.88;;;3.20;100.00
9905;BME280;4991;43.566;27.820;2023-02-02T08:06:37;98698.59;;;3.27;100.00
9905;BME280;4991;43.566;27.820;2023-02-02T08:09:05;98689.75;;;3.32;100.00
9905;BME280;4991;43.566;27.820;2023-02-02T08:11:35;98689.31;;;3.45;100.00
9905;BME280;4991;43.566;27.820;2023-02-02T08:14:03;98684.25;;;3.58;100.00
9905;BME280;4991;43.566;27.820;2023-02-02T08:16:29;98694.00;;;3.64;100.00
9905;BME280;4991;43.566;27.820;2023-02-02T08:18:56;98703.16;;;3.68;100.00
9905;BME280;4991;43.566;27.820;2023-02-02T08:21:23;98701.03;;;3.75;100.00
9905;BME280;4991;43.566;27.820;2023-02-02T08:23:51;98692.41;;;3.73;100.00
9905;BME280;4991;43.566;27.820;2023-02-02T08:26:24;98682.78;;;3.82;100.00
9905;BME280;4991;43.566;27.820;2023-02-02T08:28:55;98694.38;;;3.93;100.00
9905;BME280;4991;43.566;27.820;2023-02-02T08:31:30;98697.66;;;4.00;100.00
9905;BME280;4991;43.566;27.820;2023-02-02T08:33:57;98699.28;;;4.01;100.00
9905;BME280;4991;43.566;27.820;2023-02-02T08:36:24;98714.09;;;4.04;100.00
9905;BME280;4991;43.566;27.820;2023-02-02T08:38:51;98697.34;;;3.96;100.00
9905;BME280;4991;43.566;27.820;2023-02-02T08:41:20;98704.41;;;4.03;100.00
9905;BME280;4991;43.566;27.820;2023-02-02T08:43:46;98701.19;;;4.06;100.00
9905;BME280;4991;43.566;27.820;2023-02-02T08:46:13;98729.53;;;4.23;100.00
9905;BME280;4991;43.566;27.820;2023-02-02T08:48:39;98698.53;;;4.21;100.00
9905;BME280;4991;43.566;27.820;2023-02-02T08:51:06;98716.88;;;4.29;100.00
9905;BME280;4991;43.566;27.820;2023-02-02T08:53:32;98715.84;;;4.45;100.00
9905;BME280;4991;43.566;27.820;2023-02-02T08:56:03;98715.31;;;4.48;100.00
9905;BME280;4991;43.566;27.820;2023-02-02T08:58:30;98705.38;;;4.63;100.00
9905;BME280;4991;43.566;27.820;2023-02-02T09:01:07;98695.94;;;4.81;100.00
9905;BME280;4991;43.566;27.820;2023-02-02T09:03:33;98702.97;;;4.97;100.00
9905;BME280;4991;43.566;27.820;2023-02-02T09:06:04;98718.63;;;4.95;100.00
9905;BME280;4991;43.566;27.820;2023-02-02T09:08:30;98727.25;;;4.92;100.00
9905;BME280;4991;43.566;27.820;2023-02-02T09:11:05;98720.75;;;4.73;100.00
9905;BME280;4991;43.566;27.820;2023-02-02T09:13:31;98717.53;;;4.76;100.00
9905;BME280;4991;43.566;27.820;2023-02-02T09:16:01;98712.91;;;4.66;100.00
9905;BME280;4991;43.566;27.820;2023-02-02T09:18:28;98725.88;;;4.69;100.00
9905;BME280;4991;43.566;27.820;2023-02-02T09:20:53;98713.47;;;4.68;100.00
9905;BME280;4991;43.566;27.820;2023-02-02T09:23:19;98706.47;;;4.67;100.00
9905;BME280;4991;43.566;27.820;2023-02-02T09:25:45;98697.84;;;5.20;100.00
9905;BME280;4991;43.566;27.820;2023-02-02T09:28:11;98682.94;;;5.53;100.00
9905;BME280;4991;43.566;27.820;2023-02-02T09:30:37;98687.81;;;5.46;100.00
9905;BME280;4991;43.566;27.820;2023-02-02T09:33:03;98673.06;;;6.02;100.00
9905;BME280;4991;43.566;27.820;2023-02-02T09:35:29;98681.44;;;7.22;100.00
9905;BME280;4991;43.566;27.820;2023-02-02T09:37:54;98671.81;;;7.63;100.00
9905;BME280;4991;43.566;27.820;2023-02-02T09:40:20;98667.94;;;8.16;100.00
9905;BME280;4991;43.566;27.820;2023-02-02T09:42:59;98665.44;;;8.62;100.00
9905;BME280;4991;43.566;27.820;2023-02-02T09:48:37;98648.00;;;8.07;100.00
9905;BME280;4991;43.566;27.820;2023-02-02T09:51:12;98625.44;;;8.67;100.00
9905;BME280;4991;43.566;27.820;2023-02-02T09:53:51;98619.31;;;9.80;100.00
9905;BME280;4991;43.566;27.820;2023-02-02T09:56:23;98608.84;;;9.87;100.00
9905;BME280;4991;43.566;27.820;2023-02-02T09:58:55;98599.78;;;9.38;100.00
9905;BME280;4991;43.566;27.820;2023-02-02T10:01:30;98617.28;;;9.45;100.00
9905;BME280;4991;43.566;27.820;2023-02-02T10:06:50;98599.88;;;10.72;100.00
9905;BME280;4991;43.566;27.820;2023-02-02T10:22:57;98612.94;;;10.25;100.00
9905;BME280;4991;43.566;27.820;2023-02-02T10:25:26;98608.72;;;10.06;100.00
9905;BME280;4991;43.566;27.820;2023-02-02T10:30:43;98591.03;;;9.68;100.00
9905;BME280;4991;43.566;27.820;2023-02-02T10:33:20;98594.16;;;9.61;100.00
9905;BME280;4991;43.566;27.820;2023-02-02T10:35:59;98626.06;;;8.96;100.00
9905;BME280;4991;43.566;27.820;2023-02-02T10:41:55;98616.63;;;9.07;100.00
9905;BME280;4991;43.566;27.820;2023-02-02T10:44:24;98638.75;;;8.50;100.00
9905;BME280;4991;43.566;27.820;2023-02-02T10:46:55;98617.97;;;8.59;100.00
9905;BME280;4991;43.566;27.820;2023-02-02T10:51:58;98616.19;;;8.87;100.00
9905;BME280;4991;43.566;27.820;2023-02-02T10:57:16;98615.44;;;8.81;100.00
9905;BME280;4991;43.566;27.820;2023-02-02T11:00:50;98608.81;;;9.20;100.00
9905;BME280;4991;43.566;27.820;2023-02-02T11:02:51;98602.13;;;9.12;100.00
9905;BME280;4991;43.566;27.820;2023-02-02T11:05:35;98606.03;;;9.38;100.00
9905;BME280;4991;43.566;27.820;2023-02-02T11:08:24;98600.59;;;9.52;100.00
9905;BME280;4991;43.566;27.820;2023-02-02T11:10:52;98610.28;;;9.71;100.00
9905;BME280;4991;43.566;27.820;2023-02-02T11:13:30;98598.47;;;9.62;100.00
9905;BME280;4991;43.566;27.820;2023-02-02T11:16:30;98599.50;;;9.07;100.00
9905;BME280;4991;43.566;27.820;2023-02-02T11:18:56;98604.59;;;8.81;100.00
9905;BME280;4991;43.566;27.820;2023-02-02T11:21:30;98591.00;;;8.31;100.00
9905;BME280;4991;43.566;27.820;2023-02-02T11:26:49;98607.38;;;8.02;100.00
9905;BME280;4991;43.566;27.820;2023-02-02T11:29:44;98588.16;;;7.80;100.00
9905;BME280;4991;43.566;27.820;2023-02-02T11:32:34;98598.53;;;7.73;100.00
9905;BME280;4991;43.566;27.820;2023-02-02T11:37:32;98579.94;;;7.85;100.00
9905;BME280;4991;43.566;27.820;2023-02-02T11:42:51;98601.53;;;8.51;100.00
9905;BME280;4991;43.566;27.820;2023-02-02T11:45:22;98583.94;;;8.48;100.00
9905;BME280;4991;43.566;27.820;2023-02-02T11:47:52;98593.16;;;8.66;100.00
9905;BME280;4991;43.566;27.820;2023-02-02T11:50:26;98575.78;;;8.67;100.00
9905;BME280;4991;43.566;27.820;2023-02-02T11:52:53;98565.41;;;8.69;100.00
9905;BME280;4991;43.566;27.820;2023-02-02T11:55:26;98563.16;;;8.57;100.00
9905;BME280;4991;43.566;27.820;2023-02-02T11:58:09;98548.78;;;8.25;100.00
9905;BME280;4991;43.566;27.820;2023-02-02T12:00:46;98560.47;;;8.20;100.00
9905;BME280;4991;43.566;27.820;2023-02-02T12:03:35;98565.50;;;7.89;100.00
9905;BME280;4991;43.566;27.820;2023-02-02T12:06:18;98570.00;;;7.80;100.00
9905;BME280;4991;43.566;27.820;2023-02-02T12:08:45;98558.31;;;7.80;100.00
9905;BME280;4991;43.566;27.820;2023-02-02T12:11:20;98539.53;;;8.07;100.00
9905;BME280;4991;43.566;27.820;2023-02-02T12:16:51;98536.19;;;8.47;100.00
9905;BME280;4991;43.566;27.820;2023-02-02T12:22:09;98538.72;;;8.07;100.00
9905;BME280;4991;43.566;27.820;2023-02-02T12:24:59;98533.72;;;8.14;100.00
9905;BME280;4991;43.566;27.820;2023-02-02T12:42:38;98533.88;;;8.22;100.00
9905;BME280;4991;43.566;27.820;2023-02-02T12:45:17;98533.34;;;8.20;100.00
9905;BME280;4991;43.566;27.820;2023-02-02T12:55:50;98531.66;;;8.43;100.00
9905;BME280;4991;43.566;27.820;2023-02-02T12:58:37;98529.53;;;8.21;100.00
9905;BME280;4991;43.566;27.820;2023-02-02T13:01:17;98529.53;;;8.03;100.00
9905;BME280;4991;43.566;27.820;2023-02-02T13:03:59;98527.56;;;7.89;100.00
9905;BME280;4991;43.566;27.820;2023-02-02T13:09:32;98523.66;;;7.58;100.00
9905;BME280;4991;43.566;27.820;2023-02-02T13:12:09;98523.22;;;7.70;100.00
9905;BME280;4991;43.566;27.820;2023-02-02T13:17:40;98527.50;;;7.34;100.00
9905;BME280;4991;43.566;27.820;2023-02-02T13:20:19;98520.47;;;7.33;100.00
9905;BME280;4991;43.566;27.820;2023-02-02T13:22:46;98513.19;;;7.28;100.00
9905;BME280;4991;43.566;27.820;2023-02-02T13:25:23;98505.34;;;7.50;100.00
9905;BME280;4991;43.566;27.820;2023-02-02T13:27:51;98507.66;;;7.38;100.00
9905;BME280;4991;43.566;27.820;2023-02-02T13:30:30;98512.06;;;7.11;100.00
9905;BME280;4991;43.566;27.820;2023-02-02T13:33:02;98496.63;;;7.11;100.00
9905;BME280;4991;43.566;27.820;2023-02-02T13:38:26;98511.53;;;7.09;100.00
9905;BME280;4991;43.566;27.820;2023-02-02T13:40:57;98506.56;;;6.92;100.00
9905;BME280;4991;43.566;27.820;2023-02-02T14:00:30;98509.34;;;6.58;100.00
9905;BME280;4991;43.566;27.820;2023-02-02T14:03:03;98512.63;;;6.55;100.00
9905;BME280;4991;43.566;27.820;2023-02-02T14:05:36;98503.13;;;6.58;100.00
9905;BME280;4991;43.566;27.820;2023-02-02T14:08:28;98512.91;;;6.54;100.00
9905;BME280;4991;43.566;27.820;2023-02-02T14:10:57;98509.44;;;6.48;100.00
9905;BME280;4991;43.566;27.820;2023-02-02T14:13:41;98499.38;;;6.54;100.00
9905;BME280;4991;43.566;27.820;2023-02-02T14:18:59;98511.16;;;6.39;100.00
9905;BME280;4991;43.566;27.820;2023-02-02T14:26:58;98541.13;;;5.56;100.00
9905;BME280;4991;43.566;27.820;2023-02-02T14:34:44;98589.94;;;4.25;100.00
9905;BME280;4991;43.566;27.820;2023-02-02T14:45:41;98608.81;;;3.43;100.00
9905;BME280;4991;43.566;27.820;2023-02-02T14:48:22;98593.66;;;3.27;100.00
9905;BME280;4991;43.566;27.820;2023-02-02T14:50:54;98572.09;;;3.22;100.00
9905;BME280;4991;43.566;27.820;2023-02-02T14:53:32;98567.78;;;3.16;100.00
9905;BME280;4991;43.566;27.820;2023-02-02T14:56:04;98565.34;;;3.15;100.00
9905;BME280;4991;43.566;27.820;2023-02-02T14:58:34;98567.50;;;3.13;100.00
9905;BME280;4991;43.566;27.820;2023-02-02T15:01:20;98565.63;;;3.13;100.00
9905;BME280;4991;43.566;27.820;2023-02-02T15:06:40;98573.69;;;3.13;100.00
9905;BME280;4991;43.566;27.820;2023-02-02T15:17:19;98572.59;;;3.09;100.00
9905;BME280;4991;43.566;27.820;2023-02-02T15:19:51;98573.66;;;3.08;100.00
9905;BME280;4991;43.566;27.820;2023-02-02T15:24:53;98581.72;;;3.08;100.00
9905;BME280;4991;43.566;27.820;2023-02-02T15:27:21;98584.47;;;3.13;100.00
9905;BME280;4991;43.566;27.820;2023-02-02T15:29:55;98581.22;;;3.16;100.00
9905;BME280;4991;43.566;27.820;2023-02-02T15:32:24;98577.44;;;3.12;100.00
9905;BME280;4991;43.566;27.820;2023-02-02T15:34:57;98594.72;;;3.21;100.00
9905;BME280;4991;43.566;27.820;2023-02-02T15:37:28;98588.50;;;3.21;100.00
9905;BME280;4991;43.566;27.820;2023-02-02T15:39:57;98585.59;;;3.27;100.00
9905;BME280;4991;43.566;27.820;2023-02-02T15:43:03;98590.44;;;3.30;100.00
9905;BME280;4991;43.566;27.820;2023-02-02T15:47:58;98599.06;;;3.32;100.00
9905;BME280;4991;43.566;27.820;2023-02-02T15:50:24;98594.47;;;3.28;100.00
9905;BME280;4991;43.566;27.820;2023-02-02T15:52:52;98596.38;;;3.32;100.00
9905;BME280;4991;43.566;27.820;2023-02-02T15:57:44;98596.38;;;3.32;100.00
9905;BME280;4991;43.566;27.820;2023-02-02T16:00:32;98610.06;;;3.26;100.00
9905;BME280;4991;43.566;27.820;2023-02-02T16:03:15;98597.66;;;3.20;100.00
9905;BME280;4991;43.566;27.820;2023-02-02T16:05:49;98617.56;;;3.19;100.00